sensor_id;sensor_type;location;lat;lon;timestamp;pressure;altitude;pressure_sealevel;temperature;humidity
56074;BME280;41950;55.840;37.442;2023-02-15T00:01:54;99977.19;;;-1.92;77.50
56074;BME280;41950;55.840;37.442;2023-02-15T00:04:22;99988.09;;;-1.94;77.01
56074;BME280;41950;55.840;37.442;2023-02-15T00:06:49;99984.06;;;-1.89;77.40
56074;BME280;41950;55.840;37.442;2023-02-15T00:09:14;99973.75;;;-1.92;77.25
56074;BME280;41950;55.840;37.442;2023-02-15T00:11:40;99967.63;;;-1.97;76.52
56074;BME280;41950;55.840;37.442;2023-02-15T00:14:17;99981.47;;;-1.91;76.28
56074;BME280;41950;55.840;37.442;2023-02-15T00:16:43;99992.56;;;-1.89;76.46
56074;BME280;41950;55.840;37.442;2023-02-15T00:19:10;99944.50;;;-2.26;75.57
56074;BME280;41950;55.840;37.442;2023-02-15T00:21:38;99993.75;;;-2.01;75.66
56074;BME280;41950;55.840;37.442;2023-02-15T00:24:06;99981.75;;;-2.05;76.06
56074;BME280;41950;55.840;37.442;2023-02-15T00:26:34;99991.28;;;-2.00;76.31
56074;BME280;41950;55.840;37.442;2023-02-15T00:29:00;99977.78;;;-1.97;76.26
56074;BME280;41950;55.840;37.442;2023-02-15T00:31:27;99981.25;;;-1.95;75.89
56074;BME280;41950;55.840;37.442;2023-02-15T00:33:53;99996.34;;;-2.00;76.14
56074;BME280;41950;55.840;37.442;2023-02-15T00:36:19;99992.13;;;-1.99;76.41
56074;BME280;41950;55.840;37.442;2023-02-15T00:38:45;99989.53;;;-2.01;76.60
56074;BME280;41950;55.840;37.442;2023-02-15T00:41:10;99975.41;;;-2.16;76.99
56074;BME280;41950;55.840;37.442;2023-02-15T00:43:36;100003.06;;;-2.02;76.98
56074;BME280;41950;55.840;37.442;2023-02-15T00:46:03;99968.56;;;-2.17;76.79
56074;BME280;41950;55.840;37.442;2023-02-15T00:48:30;99979.72;;;-2.14;77.07
56074;BME280;41950;55.840;37.442;2023-02-15T00:50:57;99995.44;;;-2.02;77.31
56074;BME280;41950;55.840;37.442;2023-02-15T00:53:24;100002.31;;;-1.99;76.90
56074;BME280;41950;55.840;37.442;2023-02-15T00:55:50;99977.19;;;-2.14;76.45
56074;BME280;41950;55.840;37.442;2023-02-15T00:58:16;99998.97;;;-1.98;76.39
56074;BME280;41950;55.840;37.442;2023-02-15T01:00:43;99979.91;;;-2.09;75.69
56074;BME280;41950;55.840;37.442;2023-02-15T01:03:10;100003.19;;;-1.99;75.65
56074;BME280;41950;55.840;37.442;2023-02-15T01:05:36;100001.38;;;-2.01;75.53
56074;BME280;41950;55.840;37.442;2023-02-15T01:08:02;99990.19;;;-2.06;75.21
56074;BME280;41950;55.840;37.442;2023-02-15T01:10:28;99990.22;;;-2.05;74.55
56074;BME280;41950;55.840;37.442;2023-02-15T01:12:55;99991.56;;;-2.14;74.88
56074;BME280;41950;55.840;37.442;2023-02-15T01:15:21;99988.09;;;-2.16;74.99
56074;BME280;41950;55.840;37.442;2023-02-15T01:17:47;100008.22;;;-2.00;74.75
56074;BME280;41950;55.840;37.442;2023-02-15T01:20:23;100012.47;;;-1.99;74.62
56074;BME280;41950;55.840;37.442;2023-02-15T01:22:50;100009.72;;;-2.05;75.56
56074;BME280;41950;55.840;37.442;2023-02-15T01:25:20;99987.84;;;-2.23;76.00
56074;BME280;41950;55.840;37.442;2023-02-15T01:27:47;100001.91;;;-2.10;75.87
56074;BME280;41950;55.840;37.442;2023-02-15T01:30:14;100019.59;;;-2.13;75.30
56074;BME280;41950;55.840;37.442;2023-02-15T01:32:41;100011.97;;;-2.13;75.37
56074;BME280;41950;55.840;37.442;2023-02-15T01:35:07;100022.09;;;-2.14;74.99
56074;BME280;41950;55.840;37.442;2023-02-15T01:37:34;99957.28;;;-2.46;74.82
56074;BME280;41950;55.840;37.442;2023-02-15T01:40:04;100008.56;;;-2.13;74.66
56074;BME280;41950;55.840;37.442;2023-02-15T01:42:31;100015.72;;;-2.03;74.02
56074;BME280;41950;55.840;37.442;2023-02-15T01:45:31;99945.56;;;-2.43;73.27
56074;BME280;41950;55.840;37.442;2023-02-15T01:47:51;100028.56;;;-2.00;73.23
56074;BME280;41950;55.840;37.442;2023-02-15T01:50:28;100026.00;;;-2.00;72.15
56074;BME280;41950;55.840;37.442;2023-02-15T01:52:58;100016.66;;;-2.01;71.84
56074;BME280;41950;55.840;37.442;2023-02-15T01:55:39;100026.88;;;-2.00;71.81
56074;BME280;41950;55.840;37.442;2023-02-15T01:58:06;100012.91;;;-2.11;71.83
56074;BME280;41950;55.840;37.442;2023-02-15T02:00:34;100035.25;;;-2.02;71.60
56074;BME280;41950;55.840;37.442;2023-02-15T02:02:59;100025.09;;;-2.02;71.43
56074;BME280;41950;55.840;37.442;2023-02-15T02:05:27;100041.28;;;-2.00;71.71
56074;BME280;41950;55.840;37.442;2023-02-15T02:07:56;100025.09;;;-2.02;70.82
56074;BME280;41950;55.840;37.442;2023-02-15T02:10:24;100025.78;;;-2.06;70.84
56074;BME280;41950;55.840;37.442;2023-02-15T02:13:05;100023.25;;;-2.06;70.43
56074;BME280;41950;55.840;37.442;2023-02-15T02:15:53;100035.59;;;-2.15;70.23
56074;BME280;41950;55.840;37.442;2023-02-15T02:18:48;100045.03;;;-2.13;70.60
56074;BME280;41950;55.840;37.442;2023-02-15T02:24:58;100037.34;;;-2.14;70.33
56074;BME280;41950;55.840;37.442;2023-02-15T02:35:56;100043.78;;;-2.23;70.23
56074;BME280;41950;55.840;37.442;2023-02-15T02:41:28;100046.25;;;-2.24;69.16
56074;BME280;41950;55.840;37.442;2023-02-15T02:46:59;100043.53;;;-2.29;69.80
56074;BME280;41950;55.840;37.442;2023-02-15T02:49:38;100052.91;;;-2.28;70.03
56074;BME280;41950;55.840;37.442;2023-02-15T02:52:53;100056.25;;;-2.29;70.07
56074;BME280;41950;55.840;37.442;2023-02-15T02:54:53;100059.66;;;-2.28;70.27
56074;BME280;41950;55.840;37.442;2023-02-15T02:57:22;100038.03;;;-2.39;69.96
56074;BME280;41950;55.840;37.442;2023-02-15T02:59:50;100046.53;;;-2.39;69.89
56074;BME280;41950;55.840;37.442;2023-02-15T03:02:22;100056.03;;;-2.35;70.12
56074;BME280;41950;55.840;37.442;2023-02-15T03:04:53;100033.53;;;-2.46;70.05
56074;BME280;41950;55.840;37.442;2023-02-15T03:07:25;100060.53;;;-2.28;70.58
56074;BME280;41950;55.840;37.442;2023-02-15T03:09:54;100010.97;;;-2.60;70.88
56074;BME280;41950;55.840;37.442;2023-02-15T03:12:27;100074.75;;;-2.33;71.42
56074;BME280;41950;55.840;37.442;2023-02-15T03:17:33;100076.34;;;-2.35;72.04
56074;BME280;41950;55.840;37.442;2023-02-15T03:20:12;100075.53;;;-2.34;71.97
56074;BME280;41950;55.840;37.442;2023-02-15T03:23:12;100079.69;;;-2.36;71.79
56074;BME280;41950;55.840;37.442;2023-02-15T03:25:46;100066.47;;;-2.48;72.54
56074;BME280;41950;55.840;37.442;2023-02-15T03:28:19;100074.78;;;-2.52;72.58
56074;BME280;41950;55.840;37.442;2023-02-15T03:30:48;100097.28;;;-2.61;72.75
56074;BME280;41950;55.840;37.442;2023-02-15T03:33:17;100086.25;;;-2.62;72.60
56074;BME280;41950;55.840;37.442;2023-02-15T03:35:53;100081.19;;;-2.62;72.11
56074;BME280;41950;55.840;37.442;2023-02-15T03:38:34;100066.03;;;-2.80;71.34
56074;BME280;41950;55.840;37.442;2023-02-15T03:41:02;100083.47;;;-2.68;71.19
56074;BME280;41950;55.840;37.442;2023-02-15T03:44:01;100081.91;;;-2.64;70.91
56074;BME280;41950;55.840;37.442;2023-02-15T03:46:40;100076.53;;;-2.72;70.40
56074;BME280;41950;55.840;37.442;2023-02-15T03:49:14;100085.00;;;-2.71;69.80
56074;BME280;41950;55.840;37.442;2023-02-15T03:51:46;100067.81;;;-2.77;68.73
56074;BME280;41950;55.840;37.442;2023-02-15T03:54:18;100075.84;;;-2.68;69.03
56074;BME280;41950;55.840;37.442;2023-02-15T03:57:04;100086.81;;;-2.69;67.85
56074;BME280;41950;55.840;37.442;2023-02-15T03:59:50;100049.97;;;-2.99;68.15
56074;BME280;41950;55.840;37.442;2023-02-15T04:05:35;100068.19;;;-2.89;67.65
56074;BME280;41950;55.840;37.442;2023-02-15T04:08:01;100087.16;;;-2.81;67.94
56074;BME280;41950;55.840;37.442;2023-02-15T04:10:27;100082.00;;;-2.82;67.56
56074;BME280;41950;55.840;37.442;2023-02-15T04:13:11;100087.28;;;-2.77;67.41
56074;BME280;41950;55.840;37.442;2023-02-15T04:15:36;100050.28;;;-2.92;67.42
56074;BME280;41950;55.840;37.442;2023-02-15T04:18:20;100091.78;;;-2.72;67.64
56074;BME280;41950;55.840;37.442;2023-02-15T04:20:46;100081.31;;;-2.78;66.41
56074;BME280;41950;55.840;37.442;2023-02-15T04:23:31;100094.81;;;-2.79;66.65
56074;BME280;41950;55.840;37.442;2023-02-15T04:26:16;100090.38;;;-2.85;66.27
56074;BME280;41950;55.840;37.442;2023-02-15T04:28:42;100085.91;;;-2.90;66.44
56074;BME280;41950;55.840;37.442;2023-02-15T04:31:07;100094.50;;;-2.87;66.44
56074;BME280;41950;55.840;37.442;2023-02-15T04:33:33;100088.63;;;-2.86;66.85
56074;BME280;41950;55.840;37.442;2023-02-15T04:36:02;100084.91;;;-2.94;66.25
56074;BME280;41950;55.840;37.442;2023-02-15T04:38:28;100067.75;;;-2.99;66.71
56074;BME280;41950;55.840;37.442;2023-02-15T04:40:54;100096.06;;;-2.90;66.59
56074;BME280;41950;55.840;37.442;2023-02-15T04:43:19;100096.06;;;-2.90;67.04
56074;BME280;41950;55.840;37.442;2023-02-15T04:45:49;100102.00;;;-2.90;67.07
56074;BME280;41950;55.840;37.442;2023-02-15T04:48:16;100096.00;;;-2.92;66.69
56074;BME280;41950;55.840;37.442;2023-02-15T04:50:42;100090.44;;;-3.02;66.85
56074;BME280;41950;55.840;37.442;2023-02-15T04:53:08;100088.56;;;-3.06;66.75
56074;BME280;41950;55.840;37.442;2023-02-15T04:55:34;100102.13;;;-3.06;67.17
56074;BME280;41950;55.840;37.442;2023-02-15T04:57:59;100045.03;;;-3.35;67.43
56074;BME280;41950;55.840;37.442;2023-02-15T05:00:25;100094.38;;;-3.09;67.37
56074;BME280;41950;55.840;37.442;2023-02-15T05:02:51;100073.56;;;-3.21;67.61
56074;BME280;41950;55.840;37.442;2023-02-15T05:05:16;100102.81;;;-3.10;67.53
56074;BME280;41950;55.840;37.442;2023-02-15T05:07:42;100069.03;;;-3.28;67.83
56074;BME280;41950;55.840;37.442;2023-02-15T05:10:08;100103.47;;;-3.14;67.77
56074;BME280;41950;55.840;37.442;2023-02-15T05:12:34;100058.56;;;-3.34;67.50
56074;BME280;41950;55.840;37.442;2023-02-15T05:14:59;100099.53;;;-3.27;67.08
56074;BME280;41950;55.840;37.442;2023-02-15T05:17:25;100088.28;;;-3.32;67.66
56074;BME280;41950;55.840;37.442;2023-02-15T05:19:51;100113.63;;;-3.14;67.45
56074;BME280;41950;55.840;37.442;2023-02-15T05:22:16;100111.09;;;-3.14;67.97
56074;BME280;41950;55.840;37.442;2023-02-15T05:24:42;100112.16;;;-3.09;67.78
56074;BME280;41950;55.840;37.442;2023-02-15T05:27:26;100121.56;;;-3.06;67.72
56074;BME280;41950;55.840;37.442;2023-02-15T05:30:11;100107.63;;;-3.16;67.05
56074;BME280;41950;55.840;37.442;2023-02-15T05:32:38;100109.09;;;-3.21;67.06
56074;BME280;41950;55.840;37.442;2023-02-15T05:35:05;100090.69;;;-3.35;67.21
56074;BME280;41950;55.840;37.442;2023-02-15T05:37:31;100122.06;;;-3.15;67.02
56074;BME280;41950;55.840;37.442;2023-02-15T05:39:57;100124.53;;;-3.17;66.95
56074;BME280;41950;55.840;37.442;2023-02-15T05:42:23;100117.50;;;-3.22;67.05
56074;BME280;41950;55.840;37.442;2023-02-15T05:44:48;100138.28;;;-3.12;67.11
56074;BME280;41950;55.840;37.442;2023-02-15T05:47:14;100129.81;;;-3.12;67.27
56074;BME280;41950;55.840;37.442;2023-02-15T05:49:39;100128.13;;;-3.12;67.18
56074;BME280;41950;55.840;37.442;2023-02-15T05:52:05;100123.72;;;-3.16;67.23
56074;BME280;41950;55.840;37.442;2023-02-15T05:54:31;100128.66;;;-3.19;67.25
56074;BME280;41950;55.840;37.442;2023-02-15T05:56:57;100128.94;;;-3.13;67.08
56074;BME280;41950;55.840;37.442;2023-02-15T05:59:23;100133.13;;;-3.13;67.19
56074;BME280;41950;55.840;37.442;2023-02-15T06:01:48;100133.75;;;-3.19;67.06
56074;BME280;41950;55.840;37.442;2023-02-15T06:04:15;100123.31;;;-3.25;67.28
56074;BME280;41950;55.840;37.442;2023-02-15T06:06:40;100112.16;;;-3.28;66.89
56074;BME280;41950;55.840;37.442;2023-02-15T06:09:06;100131.88;;;-3.23;67.20
56074;BME280;41950;55.840;37.442;2023-02-15T06:11:32;100128.47;;;-3.23;66.97
56074;BME280;41950;55.840;37.442;2023-02-15T06:13:58;100132.00;;;-3.20;67.16
56074;BME280;41950;55.840;37.442;2023-02-15T06:16:24;100138.16;;;-3.15;67.17
56074;BME280;41950;55.840;37.442;2023-02-15T06:18:50;100143.28;;;-3.13;66.97
56074;BME280;41950;55.840;37.442;2023-02-15T06:21:16;100137.88;;;-3.21;66.52
56074;BME280;41950;55.840;37.442;2023-02-15T06:23:41;100168.34;;;-3.21;66.83
56074;BME280;41950;55.840;37.442;2023-02-15T06:26:07;100154.50;;;-3.27;66.49
56074;BME280;41950;55.840;37.442;2023-02-15T06:28:32;100145.00;;;-3.31;66.60
56074;BME280;41950;55.840;37.442;2023-02-15T06:30:58;100147.97;;;-3.22;66.75
56074;BME280;41950;55.840;37.442;2023-02-15T06:33:24;100167.22;;;-3.08;66.40
56074;BME280;41950;55.840;37.442;2023-02-15T06:35:49;100164.00;;;-3.04;66.05
56074;BME280;41950;55.840;37.442;2023-02-15T06:38:15;100156.25;;;-3.07;66.12
56074;BME280;41950;55.840;37.442;2023-02-15T06:40:42;100166.97;;;-2.95;66.19
56074;BME280;41950;55.840;37.442;2023-02-15T06:43:08;100169.91;;;-2.86;66.16
56074;BME280;41950;55.840;37.442;2023-02-15T06:45:33;100172.72;;;-2.80;65.84
56074;BME280;41950;55.840;37.442;2023-02-15T06:47:59;100160.00;;;-2.80;65.55
56074;BME280;41950;55.840;37.442;2023-02-15T06:50:25;100170.47;;;-2.73;65.72
56074;BME280;41950;55.840;37.442;2023-02-15T06:52:56;100135.41;;;-2.81;65.47
56074;BME280;41950;55.840;37.442;2023-02-15T06:55:22;100170.22;;;-2.78;65.16
56074;BME280;41950;55.840;37.442;2023-02-15T06:57:47;100147.47;;;-2.96;65.77
56074;BME280;41950;55.840;37.442;2023-02-15T07:00:13;100162.53;;;-2.80;65.98
56074;BME280;41950;55.840;37.442;2023-02-15T07:02:39;100167.38;;;-2.66;66.00
56074;BME280;41950;55.840;37.442;2023-02-15T07:05:05;100153.31;;;-2.77;65.22
56074;BME280;41950;55.840;37.442;2023-02-15T07:07:30;100167.25;;;-2.69;65.30
56074;BME280;41950;55.840;37.442;2023-02-15T07:09:56;100168.84;;;-2.71;65.38
56074;BME280;41950;55.840;37.442;2023-02-15T07:12:22;100152.13;;;-2.86;65.84
56074;BME280;41950;55.840;37.442;2023-02-15T07:15:06;100171.59;;;-2.67;65.75
56074;BME280;41950;55.840;37.442;2023-02-15T07:17:33;100142.56;;;-2.72;66.04
56074;BME280;41950;55.840;37.442;2023-02-15T07:19:58;100171.84;;;-2.61;65.28
56074;BME280;41950;55.840;37.442;2023-02-15T07:22:24;100172.78;;;-2.59;65.43
56074;BME280;41950;55.840;37.442;2023-02-15T07:24:50;100169.88;;;-2.47;65.25
56074;BME280;41950;55.840;37.442;2023-02-15T07:27:19;100162.66;;;-2.38;65.39
56074;BME280;41950;55.840;37.442;2023-02-15T07:29:45;100176.47;;;-2.31;65.12
56074;BME280;41950;55.840;37.442;2023-02-15T07:32:10;100174.00;;;-2.30;65.29
56074;BME280;41950;55.840;37.442;2023-02-15T07:34:36;100177.72;;;-2.22;65.96
56074;BME280;41950;55.840;37.442;2023-02-15T07:37:02;100171.38;;;-2.12;65.34
56074;BME280;41950;55.840;37.442;2023-02-15T07:39:27;100096.47;;;-2.60;64.20
56074;BME280;41950;55.840;37.442;2023-02-15T07:41:53;100168.78;;;-2.33;65.16
56074;BME280;41950;55.840;37.442;2023-02-15T07:44:19;100173.88;;;-2.33;65.74
56074;BME280;41950;55.840;37.442;2023-02-15T07:46:44;100179.09;;;-2.30;65.79
56074;BME280;41950;55.840;37.442;2023-02-15T07:49:10;100165.31;;;-2.35;65.16
56074;BME280;41950;55.840;37.442;2023-02-15T07:51:36;100188.06;;;-2.38;64.91
56074;BME280;41950;55.840;37.442;2023-02-15T07:54:01;100135.34;;;-2.63;65.59
56074;BME280;41950;55.840;37.442;2023-02-15T07:56:27;100194.81;;;-2.19;65.54
56074;BME280;41950;55.840;37.442;2023-02-15T07:58:53;100166.81;;;-2.40;64.77
56074;BME280;41950;55.840;37.442;2023-02-15T08:01:30;100181.69;;;-2.28;64.60
56074;BME280;41950;55.840;37.442;2023-02-15T08:03:56;100194.53;;;-2.25;64.78
56074;BME280;41950;55.840;37.442;2023-02-15T08:06:26;100191.13;;;-2.26;64.81
56074;BME280;41950;55.840;37.442;2023-02-15T08:08:53;100188.03;;;-2.19;64.78
56074;BME280;41950;55.840;37.442;2023-02-15T08:11:21;100192.09;;;-2.22;64.55
56074;BME280;41950;55.840;37.442;2023-02-15T08:13:55;100200.59;;;-2.22;64.88
56074;BME280;41950;55.840;37.442;2023-02-15T08:16:35;100195.53;;;-2.22;64.47
56074;BME280;41950;55.840;37.442;2023-02-15T08:21:30;100187.78;;;-2.25;64.59
56074;BME280;41950;55.840;37.442;2023-02-15T08:23:57;100204.16;;;-1.97;64.92
56074;BME280;41950;55.840;37.442;2023-02-15T08:26:24;100197.09;;;-1.83;64.58
56074;BME280;41950;55.840;37.442;2023-02-15T08:28:50;100209.63;;;-1.67;63.83
56074;BME280;41950;55.840;37.442;2023-02-15T08:31:17;100211.56;;;-1.62;63.29
56074;BME280;41950;55.840;37.442;2023-02-15T08:33:44;100222.97;;;-1.73;62.91
56074;BME280;41950;55.840;37.442;2023-02-15T08:36:13;100204.56;;;-1.88;62.79
56074;BME280;41950;55.840;37.442;2023-02-15T08:38:39;100183.41;;;-2.08;62.95
56074;BME280;41950;55.840;37.442;2023-02-15T08:43:40;100215.72;;;-1.84;61.96
56074;BME280;41950;55.840;37.442;2023-02-15T08:46:07;100209.59;;;-1.90;62.54
56074;BME280;41950;55.840;37.442;2023-02-15T08:48:33;100147.09;;;-2.25;62.61
56074;BME280;41950;55.840;37.442;2023-02-15T08:51:04;100220.56;;;-1.91;62.24
56074;BME280;41950;55.840;37.442;2023-02-15T08:53:30;100230.66;;;-1.92;62.92
56074;BME280;41950;55.840;37.442;2023-02-15T08:55:57;100220.63;;;-1.89;63.20
56074;BME280;41950;55.840;37.442;2023-02-15T08:58:23;100226.09;;;-1.80;63.16
56074;BME280;41950;55.840;37.442;2023-02-15T09:00:48;100236.63;;;-1.71;63.24
56074;BME280;41950;55.840;37.442;2023-02-15T09:03:14;100226.25;;;-1.75;62.60
56074;BME280;41950;55.840;37.442;2023-02-15T09:05:40;100225.91;;;-1.84;63.24
56074;BME280;41950;55.840;37.442;2023-02-15T09:08:05;100227.81;;;-1.79;63.56
56074;BME280;41950;55.840;37.442;2023-02-15T09:10:31;100228.13;;;-1.71;63.20
56074;BME280;41950;55.840;37.442;2023-02-15T09:12:57;100228.19;;;-1.49;63.11
56074;BME280;41950;55.840;37.442;2023-02-15T09:15:22;100213.31;;;-1.38;62.44
56074;BME280;41950;55.840;37.442;2023-02-15T09:17:48;100227.75;;;-1.16;62.46
56074;BME280;41950;55.840;37.442;2023-02-15T09:20:13;100171.19;;;-1.52;61.59
56074;BME280;41950;55.840;37.442;2023-02-15T09:22:39;100203.13;;;-1.38;61.47
56074;BME280;41950;55.840;37.442;2023-02-15T09:25:05;100213.78;;;-1.48;61.09
56074;BME280;41950;55.840;37.442;2023-02-15T09:27:31;100222.84;;;-1.34;62.02
56074;BME280;41950;55.840;37.442;2023-02-15T09:29:56;100215.53;;;-1.25;61.71
56074;BME280;41950;55.840;37.442;2023-02-15T09:32:22;100228.72;;;-1.13;62.08
56074;BME280;41950;55.840;37.442;2023-02-15T09:34:48;100213.09;;;-1.22;62.13
56074;BME280;41950;55.840;37.442;2023-02-15T09:37:14;100169.53;;;-1.52;61.46
56074;BME280;41950;55.840;37.442;2023-02-15T09:39:41;100236.91;;;-1.42;61.86
56074;BME280;41950;55.840;37.442;2023-02-15T09:45:06;100248.84;;;-1.41;63.84
56074;BME280;41950;55.840;37.442;2023-02-15T09:56:15;100247.22;;;-1.39;63.95
56074;BME280;41950;55.840;37.442;2023-02-15T10:12:07;100265.13;;;-1.59;65.43
56074;BME280;41950;55.840;37.442;2023-02-15T10:18:01;100260.16;;;-1.56;64.69
56074;BME280;41950;55.840;37.442;2023-02-15T10:24:08;100225.41;;;-1.76;63.59
56074;BME280;41950;55.840;37.442;2023-02-15T10:26:34;100271.56;;;-1.46;63.25
56074;BME280;41950;55.840;37.442;2023-02-15T10:29:09;100268.91;;;-1.49;63.34
56074;BME280;41950;55.840;37.442;2023-02-15T10:31:49;100267.41;;;-1.44;63.58
56074;BME280;41950;55.840;37.442;2023-02-15T10:34:37;100274.09;;;-1.25;63.52
56074;BME280;41950;55.840;37.442;2023-02-15T10:48:43;100289.66;;;-1.61;64.97
56074;BME280;41950;55.840;37.442;2023-02-15T10:51:08;100293.06;;;-1.60;65.17
56074;BME280;41950;55.840;37.442;2023-02-15T10:56:23;100301.63;;;-1.58;65.93
56074;BME280;41950;55.840;37.442;2023-02-15T11:02:23;100307.84;;;-1.51;66.04
56074;BME280;41950;55.840;37.442;2023-02-15T11:07:50;100320.75;;;-1.47;65.65
56074;BME280;41950;55.840;37.442;2023-02-15T11:10:32;100324.53;;;-1.58;65.27
56074;BME280;41950;55.840;37.442;2023-02-15T11:13:09;100319.00;;;-1.69;65.95
56074;BME280;41950;55.840;37.442;2023-02-15T11:15:44;100310.91;;;-1.79;67.15
56074;BME280;41950;55.840;37.442;2023-02-15T11:18:16;100305.94;;;-1.76;66.80
56074;BME280;41950;55.840;37.442;2023-02-15T11:20:52;100322.03;;;-1.77;66.56
56074;BME280;41950;55.840;37.442;2023-02-15T11:23:20;100305.16;;;-1.95;66.84
56074;BME280;41950;55.840;37.442;2023-02-15T11:26:04;100312.41;;;-1.84;66.90
56074;BME280;41950;55.840;37.442;2023-02-15T11:28:36;100320.47;;;-1.74;67.08
56074;BME280;41950;55.840;37.442;2023-02-15T11:31:11;100326.25;;;-1.78;66.73
56074;BME280;41950;55.840;37.442;2023-02-15T11:33:40;100293.88;;;-2.01;66.90
56074;BME280;41950;55.840;37.442;2023-02-15T11:38:33;100342.97;;;-1.64;66.12
56074;BME280;41950;55.840;37.442;2023-02-15T11:41:03;100334.91;;;-1.53;66.14
56074;BME280;41950;55.840;37.442;2023-02-15T11:45:57;100345.09;;;-1.53;65.71
56074;BME280;41950;55.840;37.442;2023-02-15T11:48:22;100338.66;;;-1.65;65.39
56074;BME280;41950;55.840;37.442;2023-02-15T11:50:48;100345.84;;;-1.75;65.50
56074;BME280;41950;55.840;37.442;2023-02-15T11:53:17;100319.91;;;-2.07;65.81
56074;BME280;41950;55.840;37.442;2023-02-15T11:55:45;100329.84;;;-2.13;66.49
56074;BME280;41950;55.840;37.442;2023-02-15T11:58:33;100300.97;;;-2.33;66.47
56074;BME280;41950;55.840;37.442;2023-02-15T12:06:48;100342.63;;;-2.11;66.16
56074;BME280;41950;55.840;37.442;2023-02-15T12:09:59;100356.19;;;-1.92;65.78
56074;BME280;41950;55.840;37.442;2023-02-15T12:12:33;100359.63;;;-1.91;65.22
56074;BME280;41950;55.840;37.442;2023-02-15T12:15:01;100356.25;;;-1.90;64.79
56074;BME280;41950;55.840;37.442;2023-02-15T12:17:33;100354.91;;;-1.82;65.03
56074;BME280;41950;55.840;37.442;2023-02-15T12:20:06;100362.06;;;-1.73;64.03
56074;BME280;41950;55.840;37.442;2023-02-15T12:22:53;100363.25;;;-1.65;62.65
56074;BME280;41950;55.840;37.442;2023-02-15T12:25:23;100354.50;;;-1.72;62.04
56074;BME280;41950;55.840;37.442;2023-02-15T12:27:50;100372.44;;;-1.69;62.40
56074;BME280;41950;55.840;37.442;2023-02-15T12:30:32;100360.78;;;-1.64;62.45
56074;BME280;41950;55.840;37.442;2023-02-15T12:33:19;100373.09;;;-1.53;61.50
56074;BME280;41950;55.840;37.442;2023-02-15T12:35:56;100368.75;;;-1.75;61.07
56074;BME280;41950;55.840;37.442;2023-02-15T12:38:25;100348.63;;;-1.90;61.74
56074;BME280;41950;55.840;37.442;2023-02-15T12:43:46;100356.41;;;-1.87;62.48
56074;BME280;41950;55.840;37.442;2023-02-15T12:46:24;100399.09;;;-1.80;65.60
56074;BME280;41950;55.840;37.442;2023-02-15T12:49:20;100395.88;;;-1.95;67.74
56074;BME280;41950;55.840;37.442;2023-02-15T12:51:51;100406.66;;;-2.01;67.87
56074;BME280;41950;55.840;37.442;2023-02-15T12:56:54;100411.34;;;-2.10;66.04
56074;BME280;41950;55.840;37.442;2023-02-15T12:59:20;100386.44;;;-2.17;65.96
56074;BME280;41950;55.840;37.442;2023-02-15T13:01:46;100406.91;;;-1.95;65.80
56074;BME280;41950;55.840;37.442;2023-02-15T13:06:52;100408.94;;;-1.88;65.82
56074;BME280;41950;55.840;37.442;2023-02-15T13:09:24;100389.72;;;-2.00;65.88
56074;BME280;41950;55.840;37.442;2023-02-15T13:11:51;100410.88;;;-1.82;65.56
56074;BME280;41950;55.840;37.442;2023-02-15T13:14:30;100424.75;;;-1.75;65.25
56074;BME280;41950;55.840;37.442;2023-02-15T13:16:58;100421.94;;;-1.81;64.58
56074;BME280;41950;55.840;37.442;2023-02-15T13:19:34;100432.72;;;-1.87;64.31
56074;BME280;41950;55.840;37.442;2023-02-15T13:22:05;100407.25;;;-2.06;64.49
56074;BME280;41950;55.840;37.442;2023-02-15T13:24:49;100431.47;;;-1.95;64.33
56074;BME280;41950;55.840;37.442;2023-02-15T13:27:22;100426.94;;;-2.02;64.65
56074;BME280;41950;55.840;37.442;2023-02-15T13:29:51;100437.19;;;-2.01;64.83
56074;BME280;41950;55.840;37.442;2023-02-15T13:32:35;100444.13;;;-1.97;65.17
56074;BME280;41950;55.840;37.442;2023-02-15T13:35:05;100439.19;;;-1.94;65.09
56074;BME280;41950;55.840;37.442;2023-02-15T13:40:23;100440.91;;;-1.93;65.40
56074;BME280;41950;55.840;37.442;2023-02-15T13:43:01;100447.03;;;-1.89;65.29
56074;BME280;41950;55.840;37.442;2023-02-15T13:56:39;100459.25;;;-2.00;65.28
56074;BME280;41950;55.840;37.442;2023-02-15T14:10:46;100475.66;;;-2.12;64.10
56074;BME280;41950;55.840;37.442;2023-02-15T14:16:03;100481.69;;;-2.10;63.86
56074;BME280;41950;55.840;37.442;2023-02-15T14:18:43;100476.47;;;-2.13;63.96
56074;BME280;41950;55.840;37.442;2023-02-15T14:21:21;100441.59;;;-2.34;64.41
56074;BME280;41950;55.840;37.442;2023-02-15T14:24:06;100480.59;;;-2.15;63.28
56074;BME280;41950;55.840;37.442;2023-02-15T14:27:21;100495.41;;;-2.25;63.71
56074;BME280;41950;55.840;37.442;2023-02-15T14:29:54;100474.72;;;-2.50;64.56
56074;BME280;41950;55.840;37.442;2023-02-15T14:35:02;100488.06;;;-2.54;67.40
56074;BME280;41950;55.840;37.442;2023-02-15T14:49:36;100515.38;;;-2.50;67.99
56074;BME280;41950;55.840;37.442;2023-02-15T14:52:07;100505.53;;;-2.44;68.01
56074;BME280;41950;55.840;37.442;2023-02-15T14:59:49;100508.72;;;-2.30;66.38
56074;BME280;41950;55.840;37.442;2023-02-15T15:02:28;100518.53;;;-2.38;65.21
56074;BME280;41950;55.840;37.442;2023-02-15T15:05:08;100511.56;;;-2.42;65.38
56074;BME280;41950;55.840;37.442;2023-02-15T15:10:40;100512.34;;;-2.43;65.33
56074;BME280;41950;55.840;37.442;2023-02-15T15:13:51;100515.38;;;-2.50;65.24
56074;BME280;41950;55.840;37.442;2023-02-15T15:16:31;100518.56;;;-2.54;65.24
56074;BME280;41950;55.840;37.442;2023-02-15T15:18:58;100523.59;;;-2.56;65.97
56074;BME280;41950;55.840;37.442;2023-02-15T15:30:02;100532.97;;;-2.37;66.41
56074;BME280;41950;55.840;37.442;2023-02-15T15:32:31;100524.84;;;-2.30;66.50
56074;BME280;41950;55.840;37.442;2023-02-15T15:46:55;100539.06;;;-2.51;65.40
56074;BME280;41950;55.840;37.442;2023-02-15T15:49:28;100533.81;;;-2.54;65.08